sensor_id;sensor_type;location;lat;lon;timestamp;temperature;humidity
42663;DHT22;44330;51.360;6.686;2023-09-08T00:01:47;18.20;39.20
42663;DHT22;44330;51.360;6.686;2023-09-08T00:04:13;18.20;40.70
42663;DHT22;44330;51.360;6.686;2023-09-08T00:06:40;18.10;42.60
42663;DHT22;44330;51.360;6.686;2023-09-08T00:09:06;18.10;43.90
42663;DHT22;44330;51.360;6.686;2023-09-08T00:11:31;18.20;44.80
42663;DHT22;44330;51.360;6.686;2023-09-08T00:13:57;18.00;45.90
42663;DHT22;44330;51.360;6.686;2023-09-08T00:16:22;18.00;47.30
42663;DHT22;44330;51.360;6.686;2023-09-08T00:18:48;17.80;47.70
42663;DHT22;44330;51.360;6.686;2023-09-08T00:21:13;17.90;47.50
42663;DHT22;44330;51.360;6.686;2023-09-08T00:23:39;17.90;47.40
42663;DHT22;44330;51.360;6.686;2023-09-08T00:26:04;17.80;46.70
42663;DHT22;44330;51.360;6.686;2023-09-08T00:28:30;17.80;46.90
42663;DHT22;44330;51.360;6.686;2023-09-08T00:30:55;17.70;46.80
42663;DHT22;44330;51.360;6.686;2023-09-08T00:33:21;17.70;47.20
42663;DHT22;44330;51.360;6.686;2023-09-08T00:35:50;17.70;48.00
42663;DHT22;44330;51.360;6.686;2023-09-08T00:38:16;17.60;48.10
42663;DHT22;44330;51.360;6.686;2023-09-08T00:40:42;17.60;48.50
42663;DHT22;44330;51.360;6.686;2023-09-08T00:43:07;17.60;48.90
42663;DHT22;44330;51.360;6.686;2023-09-08T00:45:33;17.50;49.10
42663;DHT22;44330;51.360;6.686;2023-09-08T00:48:01;17.50;49.70
42663;DHT22;44330;51.360;6.686;2023-09-08T00:50:27;17.40;49.60
42663;DHT22;44330;51.360;6.686;2023-09-08T00:52:52;17.40;50.00
42663;DHT22;44330;51.360;6.686;2023-09-08T00:55:18;17.30;50.40
42663;DHT22;44330;51.360;6.686;2023-09-08T00:57:43;17.30;51.00
42663;DHT22;44330;51.360;6.686;2023-09-08T01:00:09;17.40;51.80
42663;DHT22;44330;51.360;6.686;2023-09-08T01:02:34;17.30;52.10
42663;DHT22;44330;51.360;6.686;2023-09-08T01:05:00;17.30;53.00
42663;DHT22;44330;51.360;6.686;2023-09-08T01:07:26;17.20;53.40
42663;DHT22;44330;51.360;6.686;2023-09-08T01:09:53;17.20;54.10
42663;DHT22;44330;51.360;6.686;2023-09-08T01:12:19;17.10;55.00
42663;DHT22;44330;51.360;6.686;2023-09-08T01:14:44;17.20;55.50
42663;DHT22;44330;51.360;6.686;2023-09-08T01:17:10;17.20;55.90
42663;DHT22;44330;51.360;6.686;2023-09-08T01:19:37;17.00;56.40
42663;DHT22;44330;51.360;6.686;2023-09-08T01:27:16;17.00;57.20
42663;DHT22;44330;51.360;6.686;2023-09-08T01:29:43;17.00;58.10
42663;DHT22;44330;51.360;6.686;2023-09-08T01:32:09;17.00;59.10
42663;DHT22;44330;51.360;6.686;2023-09-08T01:34:35;17.00;60.20
42663;DHT22;44330;51.360;6.686;2023-09-08T01:37:02;17.00;60.70
42663;DHT22;44330;51.360;6.686;2023-09-08T01:39:29;17.00;61.00
42663;DHT22;44330;51.360;6.686;2023-09-08T01:41:54;16.90;61.30
42663;DHT22;44330;51.360;6.686;2023-09-08T01:44:20;16.90;61.90
42663;DHT22;44330;51.360;6.686;2023-09-08T01:46:45;16.90;62.60
42663;DHT22;44330;51.360;6.686;2023-09-08T01:49:11;16.80;62.50
42663;DHT22;44330;51.360;6.686;2023-09-08T01:51:36;16.80;62.50
42663;DHT22;44330;51.360;6.686;2023-09-08T01:54:02;16.70;62.80
42663;DHT22;44330;51.360;6.686;2023-09-08T01:56:27;16.80;63.50
42663;DHT22;44330;51.360;6.686;2023-09-08T01:58:53;16.70;64.00
42663;DHT22;44330;51.360;6.686;2023-09-08T02:01:18;16.70;64.20
42663;DHT22;44330;51.360;6.686;2023-09-08T02:03:44;16.70;64.10
42663;DHT22;44330;51.360;6.686;2023-09-08T02:06:09;16.60;64.60
42663;DHT22;44330;51.360;6.686;2023-09-08T02:08:35;16.60;64.40
42663;DHT22;44330;51.360;6.686;2023-09-08T02:11:00;16.60;64.60
42663;DHT22;44330;51.360;6.686;2023-09-08T02:13:26;16.50;64.70
42663;DHT22;44330;51.360;6.686;2023-09-08T02:15:51;16.60;65.00
42663;DHT22;44330;51.360;6.686;2023-09-08T02:18:16;16.50;65.10
42663;DHT22;44330;51.360;6.686;2023-09-08T02:20:42;16.50;65.90
42663;DHT22;44330;51.360;6.686;2023-09-08T02:23:07;16.50;67.20
42663;DHT22;44330;51.360;6.686;2023-09-08T02:25:33;16.50;67.90
42663;DHT22;44330;51.360;6.686;2023-09-08T02:27:58;16.50;67.40
42663;DHT22;44330;51.360;6.686;2023-09-08T02:30:24;16.50;67.50
42663;DHT22;44330;51.360;6.686;2023-09-08T02:32:49;16.40;67.40
42663;DHT22;44330;51.360;6.686;2023-09-08T02:35:15;16.40;67.90
42663;DHT22;44330;51.360;6.686;2023-09-08T02:37:40;16.40;68.70
42663;DHT22;44330;51.360;6.686;2023-09-08T02:40:06;16.40;69.80
42663;DHT22;44330;51.360;6.686;2023-09-08T02:42:31;16.40;69.50
42663;DHT22;44330;51.360;6.686;2023-09-08T02:44:57;16.40;69.10
42663;DHT22;44330;51.360;6.686;2023-09-08T02:47:22;16.50;69.10
42663;DHT22;44330;51.360;6.686;2023-09-08T02:49:48;16.40;68.40
42663;DHT22;44330;51.360;6.686;2023-09-08T02:52:13;16.40;69.10
42663;DHT22;44330;51.360;6.686;2023-09-08T02:54:39;16.40;69.20
42663;DHT22;44330;51.360;6.686;2023-09-08T02:57:05;16.40;69.90
42663;DHT22;44330;51.360;6.686;2023-09-08T02:59:30;16.40;70.40
42663;DHT22;44330;51.360;6.686;2023-09-08T03:01:56;16.30;70.70
42663;DHT22;44330;51.360;6.686;2023-09-08T03:04:21;16.30;71.40
42663;DHT22;44330;51.360;6.686;2023-09-08T03:06:46;16.30;72.10
42663;DHT22;44330;51.360;6.686;2023-09-08T03:09:12;16.30;72.90
42663;DHT22;44330;51.360;6.686;2023-09-08T03:11:37;16.30;72.90
42663;DHT22;44330;51.360;6.686;2023-09-08T03:14:03;16.30;73.10
42663;DHT22;44330;51.360;6.686;2023-09-08T03:16:28;16.30;73.20
42663;DHT22;44330;51.360;6.686;2023-09-08T03:18:54;16.30;74.00
42663;DHT22;44330;51.360;6.686;2023-09-08T03:21:19;16.30;73.90
42663;DHT22;44330;51.360;6.686;2023-09-08T03:23:45;16.30;73.80
42663;DHT22;44330;51.360;6.686;2023-09-08T03:26:10;16.30;74.00
42663;DHT22;44330;51.360;6.686;2023-09-08T03:28:37;16.30;74.30
42663;DHT22;44330;51.360;6.686;2023-09-08T03:31:02;16.20;74.20
42663;DHT22;44330;51.360;6.686;2023-09-08T03:33:28;16.20;74.20
42663;DHT22;44330;51.360;6.686;2023-09-08T03:35:54;16.20;74.60
42663;DHT22;44330;51.360;6.686;2023-09-08T03:38:20;16.20;74.70
42663;DHT22;44330;51.360;6.686;2023-09-08T03:40:46;16.20;74.80
42663;DHT22;44330;51.360;6.686;2023-09-08T03:43:11;16.10;75.10
42663;DHT22;44330;51.360;6.686;2023-09-08T03:45:37;16.20;75.40
42663;DHT22;44330;51.360;6.686;2023-09-08T03:48:02;16.10;76.20
42663;DHT22;44330;51.360;6.686;2023-09-08T03:50:28;16.10;75.80
42663;DHT22;44330;51.360;6.686;2023-09-08T03:52:53;16.10;76.00
42663;DHT22;44330;51.360;6.686;2023-09-08T03:55:19;16.00;76.20
42663;DHT22;44330;51.360;6.686;2023-09-08T03:57:45;16.00;76.50
42663;DHT22;44330;51.360;6.686;2023-09-08T04:00:10;16.00;76.90
42663;DHT22;44330;51.360;6.686;2023-09-08T04:02:36;15.90;77.00
42663;DHT22;44330;51.360;6.686;2023-09-08T04:05:02;15.90;77.30
42663;DHT22;44330;51.360;6.686;2023-09-08T04:07:31;15.90;77.80
42663;DHT22;44330;51.360;6.686;2023-09-08T04:09:59;15.90;78.20
42663;DHT22;44330;51.360;6.686;2023-09-08T04:12:24;15.80;78.10
42663;DHT22;44330;51.360;6.686;2023-09-08T04:14:50;15.80;78.10
42663;DHT22;44330;51.360;6.686;2023-09-08T04:17:15;15.80;78.40
42663;DHT22;44330;51.360;6.686;2023-09-08T04:19:41;15.70;78.40
42663;DHT22;44330;51.360;6.686;2023-09-08T04:22:06;15.70;79.00
42663;DHT22;44330;51.360;6.686;2023-09-08T04:24:34;15.80;79.50
42663;DHT22;44330;51.360;6.686;2023-09-08T04:27:00;15.80;79.40
42663;DHT22;44330;51.360;6.686;2023-09-08T04:29:25;15.70;79.40
42663;DHT22;44330;51.360;6.686;2023-09-08T04:31:51;15.70;79.80
42663;DHT22;44330;51.360;6.686;2023-09-08T04:34:16;15.60;79.80
42663;DHT22;44330;51.360;6.686;2023-09-08T04:36:42;15.60;80.10
42663;DHT22;44330;51.360;6.686;2023-09-08T04:39:07;15.60;80.30
42663;DHT22;44330;51.360;6.686;2023-09-08T04:41:36;15.60;80.30
42663;DHT22;44330;51.360;6.686;2023-09-08T04:44:01;15.60;80.70
42663;DHT22;44330;51.360;6.686;2023-09-08T04:46:27;15.50;80.70
42663;DHT22;44330;51.360;6.686;2023-09-08T04:48:52;15.70;80.90
42663;DHT22;44330;51.360;6.686;2023-09-08T04:51:18;15.40;80.80
42663;DHT22;44330;51.360;6.686;2023-09-08T04:53:43;15.40;80.70
42663;DHT22;44330;51.360;6.686;2023-09-08T04:56:09;15.40;81.20
42663;DHT22;44330;51.360;6.686;2023-09-08T04:58:34;15.40;81.30
42663;DHT22;44330;51.360;6.686;2023-09-08T05:00:59;15.40;81.20
42663;DHT22;44330;51.360;6.686;2023-09-08T05:03:25;15.40;81.40
42663;DHT22;44330;51.360;6.686;2023-09-08T05:05:51;15.40;81.50
42663;DHT22;44330;51.360;6.686;2023-09-08T05:08:16;15.40;81.80
42663;DHT22;44330;51.360;6.686;2023-09-08T05:10:43;15.40;81.90
42663;DHT22;44330;51.360;6.686;2023-09-08T05:13:09;15.40;82.00
42663;DHT22;44330;51.360;6.686;2023-09-08T05:15:34;15.40;81.90
42663;DHT22;44330;51.360;6.686;2023-09-08T05:18:00;15.40;82.10
42663;DHT22;44330;51.360;6.686;2023-09-08T05:20:25;15.40;82.20
42663;DHT22;44330;51.360;6.686;2023-09-08T05:22:51;15.40;82.40
42663;DHT22;44330;51.360;6.686;2023-09-08T05:25:16;15.30;82.30
42663;DHT22;44330;51.360;6.686;2023-09-08T05:27:42;15.30;82.50
42663;DHT22;44330;51.360;6.686;2023-09-08T05:30:08;15.30;82.80
42663;DHT22;44330;51.360;6.686;2023-09-08T05:32:34;15.40;83.20
42663;DHT22;44330;51.360;6.686;2023-09-08T05:34:59;15.30;83.30
42663;DHT22;44330;51.360;6.686;2023-09-08T05:37:24;15.30;83.80
42663;DHT22;44330;51.360;6.686;2023-09-08T05:39:50;15.40;84.00
42663;DHT22;44330;51.360;6.686;2023-09-08T05:42:15;15.40;84.30
42663;DHT22;44330;51.360;6.686;2023-09-08T05:44:41;15.40;84.40
42663;DHT22;44330;51.360;6.686;2023-09-08T05:47:06;15.50;84.80
42663;DHT22;44330;51.360;6.686;2023-09-08T05:49:32;15.50;85.30
42663;DHT22;44330;51.360;6.686;2023-09-08T05:51:57;15.50;85.70
42663;DHT22;44330;51.360;6.686;2023-09-08T05:54:23;15.50;85.80
42663;DHT22;44330;51.360;6.686;2023-09-08T05:56:48;15.50;85.90
42663;DHT22;44330;51.360;6.686;2023-09-08T05:59:14;15.60;86.00
42663;DHT22;44330;51.360;6.686;2023-09-08T06:01:39;15.60;86.10
42663;DHT22;44330;51.360;6.686;2023-09-08T06:04:04;15.70;86.40
42663;DHT22;44330;51.360;6.686;2023-09-08T06:06:30;15.70;86.80
42663;DHT22;44330;51.360;6.686;2023-09-08T06:08:56;15.70;87.10
42663;DHT22;44330;51.360;6.686;2023-09-08T06:11:21;15.80;87.00
42663;DHT22;44330;51.360;6.686;2023-09-08T06:13:47;15.90;87.30
42663;DHT22;44330;51.360;6.686;2023-09-08T06:16:12;16.00;87.70
42663;DHT22;44330;51.360;6.686;2023-09-08T06:18:38;16.00;87.70
42663;DHT22;44330;51.360;6.686;2023-09-08T06:21:08;16.10;87.60
42663;DHT22;44330;51.360;6.686;2023-09-08T06:23:34;16.10;87.20
42663;DHT22;44330;51.360;6.686;2023-09-08T06:26:00;16.30;87.10
42663;DHT22;44330;51.360;6.686;2023-09-08T06:28:26;16.40;87.10
42663;DHT22;44330;51.360;6.686;2023-09-08T06:30:52;16.50;86.80
42663;DHT22;44330;51.360;6.686;2023-09-08T06:33:17;16.60;86.80
42663;DHT22;44330;51.360;6.686;2023-09-08T06:35:43;16.70;86.70
42663;DHT22;44330;51.360;6.686;2023-09-08T06:38:09;16.90;86.90
42663;DHT22;44330;51.360;6.686;2023-09-08T06:40:34;17.00;86.30
42663;DHT22;44330;51.360;6.686;2023-09-08T06:43:00;17.20;85.70
42663;DHT22;44330;51.360;6.686;2023-09-08T06:45:25;17.40;85.30
42663;DHT22;44330;51.360;6.686;2023-09-08T06:47:51;17.50;84.50
42663;DHT22;44330;51.360;6.686;2023-09-08T06:50:23;17.60;83.70
42663;DHT22;44330;51.360;6.686;2023-09-08T06:52:49;17.70;83.00
42663;DHT22;44330;51.360;6.686;2023-09-08T06:55:14;17.80;82.70
42663;DHT22;44330;51.360;6.686;2023-09-08T06:57:44;18.00;81.90
42663;DHT22;44330;51.360;6.686;2023-09-08T07:00:10;18.10;79.30
42663;DHT22;44330;51.360;6.686;2023-09-08T07:02:38;18.30;77.00
42663;DHT22;44330;51.360;6.686;2023-09-08T07:05:04;18.50;75.60
42663;DHT22;44330;51.360;6.686;2023-09-08T07:07:34;18.60;74.00
42663;DHT22;44330;51.360;6.686;2023-09-08T07:10:00;18.80;72.70
42663;DHT22;44330;51.360;6.686;2023-09-08T07:12:25;18.90;69.80
42663;DHT22;44330;51.360;6.686;2023-09-08T07:14:51;19.20;64.20
42663;DHT22;44330;51.360;6.686;2023-09-08T07:17:16;19.40;57.50
42663;DHT22;44330;51.360;6.686;2023-09-08T07:19:41;19.70;54.00
42663;DHT22;44330;51.360;6.686;2023-09-08T07:22:07;19.70;41.20
42663;DHT22;44330;51.360;6.686;2023-09-08T07:24:32;20.10;31.60
42663;DHT22;44330;51.360;6.686;2023-09-08T07:26:58;20.30;26.70
42663;DHT22;44330;51.360;6.686;2023-09-08T07:29:23;20.50;23.00
42663;DHT22;44330;51.360;6.686;2023-09-08T07:31:49;20.60;18.00
42663;DHT22;44330;51.360;6.686;2023-09-08T07:34:16;20.80;12.20
42663;DHT22;44330;51.360;6.686;2023-09-08T07:36:41;21.10;1.00
42663;DHT22;44330;51.360;6.686;2023-09-08T07:39:07;21.40;1.00
42663;DHT22;44330;51.360;6.686;2023-09-08T07:41:35;21.70;1.00
42663;DHT22;44330;51.360;6.686;2023-09-08T07:47:02;22.30;1.00
42663;DHT22;44330;51.360;6.686;2023-09-08T07:49:37;22.50;1.00
42663;DHT22;44330;51.360;6.686;2023-09-08T07:52:02;22.70;99.90
42663;DHT22;44330;51.360;6.686;2023-09-08T07:54:30;23.00;99.90
42663;DHT22;44330;51.360;6.686;2023-09-08T07:56:56;23.30;99.90
42663;DHT22;44330;51.360;6.686;2023-09-08T07:59:21;23.50;99.90
42663;DHT22;44330;51.360;6.686;2023-09-08T08:04:20;23.90;99.90
42663;DHT22;44330;51.360;6.686;2023-09-08T08:06:46;24.20;99.90
42663;DHT22;44330;51.360;6.686;2023-09-08T08:09:12;24.40;94.00
42663;DHT22;44330;51.360;6.686;2023-09-08T08:11:38;24.50;99.90
42663;DHT22;44330;51.360;6.686;2023-09-08T08:14:06;24.70;99.90
42663;DHT22;44330;51.360;6.686;2023-09-08T08:16:32;24.90;99.90
42663;DHT22;44330;51.360;6.686;2023-09-08T08:18:59;25.20;1.00
42663;DHT22;44330;51.360;6.686;2023-09-08T08:21:24;25.40;1.00
42663;DHT22;44330;51.360;6.686;2023-09-08T08:23:50;25.60;99.90
42663;DHT22;44330;51.360;6.686;2023-09-08T08:26:36;25.80;1.10
42663;DHT22;44330;51.360;6.686;2023-09-08T08:29:01;26.00;1.00
42663;DHT22;44330;51.360;6.686;2023-09-08T08:31:30;26.10;99.90
42663;DHT22;44330;51.360;6.686;2023-09-08T08:33:58;26.30;99.90
42663;DHT22;44330;51.360;6.686;2023-09-08T08:36:26;26.40;99.90
42663;DHT22;44330;51.360;6.686;2023-09-08T08:38:52;26.60;99.90
42663;DHT22;44330;51.360;6.686;2023-09-08T08:41:30;26.70;1.00
42663;DHT22;44330;51.360;6.686;2023-09-08T08:43:59;26.80;1.00
42663;DHT22;44330;51.360;6.686;2023-09-08T08:46:25;27.00;99.90
42663;DHT22;44330;51.360;6.686;2023-09-08T08:48:51;27.20;99.90
42663;DHT22;44330;51.360;6.686;2023-09-08T08:51:27;27.30;99.90
42663;DHT22;44330;51.360;6.686;2023-09-08T08:53:56;27.40;99.90
42663;DHT22;44330;51.360;6.686;2023-09-08T08:56:22;27.60;99.90
42663;DHT22;44330;51.360;6.686;2023-09-08T08:58:48;27.60;94.20
42663;DHT22;44330;51.360;6.686;2023-09-08T09:01:15;27.80;99.90
42663;DHT22;44330;51.360;6.686;2023-09-08T09:03:41;28.00;76.10
42663;DHT22;44330;51.360;6.686;2023-09-08T09:06:09;28.10;91.50
42663;DHT22;44330;51.360;6.686;2023-09-08T09:08:35;28.40;99.90
42663;DHT22;44330;51.360;6.686;2023-09-08T09:11:01;28.60;76.20
42663;DHT22;44330;51.360;6.686;2023-09-08T09:13:27;28.80;1.00
42663;DHT22;44330;51.360;6.686;2023-09-08T09:15:53;29.00;21.10
42663;DHT22;44330;51.360;6.686;2023-09-08T09:18:23;29.20;1.00
42663;DHT22;44330;51.360;6.686;2023-09-08T09:20:54;29.20;1.00
42663;DHT22;44330;51.360;6.686;2023-09-08T09:23:31;29.40;99.90
42663;DHT22;44330;51.360;6.686;2023-09-08T09:25:56;29.50;1.00
42663;DHT22;44330;51.360;6.686;2023-09-08T09:28:22;29.60;99.90
42663;DHT22;44330;51.360;6.686;2023-09-08T09:30:49;29.70;99.90
42663;DHT22;44330;51.360;6.686;2023-09-08T09:33:14;29.80;99.90
42663;DHT22;44330;51.360;6.686;2023-09-08T09:38:06;29.90;99.90
42663;DHT22;44330;51.360;6.686;2023-09-08T09:40:32;29.90;99.90
42663;DHT22;44330;51.360;6.686;2023-09-08T09:42:58;30.10;99.90
42663;DHT22;44330;51.360;6.686;2023-09-08T09:45:24;30.30;99.90
42663;DHT22;44330;51.360;6.686;2023-09-08T09:47:50;30.50;99.90
42663;DHT22;44330;51.360;6.686;2023-09-08T09:50:26;30.60;99.90
42663;DHT22;44330;51.360;6.686;2023-09-08T09:52:54;30.80;99.90
42663;DHT22;44330;51.360;6.686;2023-09-08T09:55:20;31.00;99.90
42663;DHT22;44330;51.360;6.686;2023-09-08T09:57:46;31.20;99.90
42663;DHT22;44330;51.360;6.686;2023-09-08T10:00:13;31.40;99.90
42663;DHT22;44330;51.360;6.686;2023-09-08T10:02:40;31.50;99.90
42663;DHT22;44330;51.360;6.686;2023-09-08T10:05:12;31.60;99.90
42663;DHT22;44330;51.360;6.686;2023-09-08T10:07:39;31.70;99.90
42663;DHT22;44330;51.360;6.686;2023-09-08T10:10:05;31.90;99.90
42663;DHT22;44330;51.360;6.686;2023-09-08T10:12:30;32.00;99.90
42663;DHT22;44330;51.360;6.686;2023-09-08T10:14:58;32.10;99.90
42663;DHT22;44330;51.360;6.686;2023-09-08T10:17:24;32.30;99.90
42663;DHT22;44330;51.360;6.686;2023-09-08T10:19:53;32.40;99.90
42663;DHT22;44330;51.360;6.686;2023-09-08T10:22:23;32.50;99.90
42663;DHT22;44330;51.360;6.686;2023-09-08T10:24:52;32.50;99.90
42663;DHT22;44330;51.360;6.686;2023-09-08T10:27:19;32.50;99.90
42663;DHT22;44330;51.360;6.686;2023-09-08T10:29:46;32.60;99.90
42663;DHT22;44330;51.360;6.686;2023-09-08T10:32:12;32.70;99.90
42663;DHT22;44330;51.360;6.686;2023-09-08T10:34:38;32.80;99.90
42663;DHT22;44330;51.360;6.686;2023-09-08T10:37:17;32.80;99.90
42663;DHT22;44330;51.360;6.686;2023-09-08T10:39:43;32.90;99.90
42663;DHT22;44330;51.360;6.686;2023-09-08T10:42:30;32.90;99.90
42663;DHT22;44330;51.360;6.686;2023-09-08T10:45:01;32.80;99.90
42663;DHT22;44330;51.360;6.686;2023-09-08T10:50:17;32.90;99.90
42663;DHT22;44330;51.360;6.686;2023-09-08T10:52:43;32.70;99.90
42663;DHT22;44330;51.360;6.686;2023-09-08T10:55:08;32.80;99.90
42663;DHT22;44330;51.360;6.686;2023-09-08T10:57:36;32.90;99.90
42663;DHT22;44330;51.360;6.686;2023-09-08T11:00:02;33.00;99.90
42663;DHT22;44330;51.360;6.686;2023-09-08T11:02:41;33.10;99.90
42663;DHT22;44330;51.360;6.686;2023-09-08T11:05:07;33.30;99.90
42663;DHT22;44330;51.360;6.686;2023-09-08T11:07:35;33.40;99.90
42663;DHT22;44330;51.360;6.686;2023-09-08T11:10:00;33.50;99.90
42663;DHT22;44330;51.360;6.686;2023-09-08T11:12:27;33.60;99.90
42663;DHT22;44330;51.360;6.686;2023-09-08T11:14:52;33.80;99.90
42663;DHT22;44330;51.360;6.686;2023-09-08T11:17:18;34.00;99.90
42663;DHT22;44330;51.360;6.686;2023-09-08T11:19:47;33.90;99.90
42663;DHT22;44330;51.360;6.686;2023-09-08T11:22:13;33.90;99.90
42663;DHT22;44330;51.360;6.686;2023-09-08T11:24:41;33.80;99.90
42663;DHT22;44330;51.360;6.686;2023-09-08T11:27:06;33.80;99.90
42663;DHT22;44330;51.360;6.686;2023-09-08T11:29:32;33.90;99.90
42663;DHT22;44330;51.360;6.686;2023-09-08T11:31:58;33.90;99.90
42663;DHT22;44330;51.360;6.686;2023-09-08T11:34:23;33.90;99.90
42663;DHT22;44330;51.360;6.686;2023-09-08T11:36:49;33.90;99.90
42663;DHT22;44330;51.360;6.686;2023-09-08T11:39:14;33.90;99.90
42663;DHT22;44330;51.360;6.686;2023-09-08T11:41:41;34.00;99.90
42663;DHT22;44330;51.360;6.686;2023-09-08T11:44:06;34.10;99.90
42663;DHT22;44330;51.360;6.686;2023-09-08T11:46:32;34.10;99.90
42663;DHT22;44330;51.360;6.686;2023-09-08T11:48:57;34.10;99.90
42663;DHT22;44330;51.360;6.686;2023-09-08T11:51:23;34.20;99.90
42663;DHT22;44330;51.360;6.686;2023-09-08T11:53:49;34.20;99.90
42663;DHT22;44330;51.360;6.686;2023-09-08T11:56:15;34.20;99.90
42663;DHT22;44330;51.360;6.686;2023-09-08T11:58:41;34.20;99.90
42663;DHT22;44330;51.360;6.686;2023-09-08T12:01:07;34.30;99.90
42663;DHT22;44330;51.360;6.686;2023-09-08T12:03:32;34.40;99.90
42663;DHT22;44330;51.360;6.686;2023-09-08T12:05:58;34.40;99.90
42663;DHT22;44330;51.360;6.686;2023-09-08T12:08:24;34.50;99.90
42663;DHT22;44330;51.360;6.686;2023-09-08T12:10:52;34.60;99.90
42663;DHT22;44330;51.360;6.686;2023-09-08T12:13:22;34.50;99.90
42663;DHT22;44330;51.360;6.686;2023-09-08T12:15:47;34.50;99.90
42663;DHT22;44330;51.360;6.686;2023-09-08T12:18:13;34.40;99.90
42663;DHT22;44330;51.360;6.686;2023-09-08T12:20:42;34.40;99.90
42663;DHT22;44330;51.360;6.686;2023-09-08T12:23:20;34.30;99.90
42663;DHT22;44330;51.360;6.686;2023-09-08T12:25:46;34.20;99.90
42663;DHT22;44330;51.360;6.686;2023-09-08T12:28:12;34.30;99.90
42663;DHT22;44330;51.360;6.686;2023-09-08T12:30:38;34.40;99.90
42663;DHT22;44330;51.360;6.686;2023-09-08T12:33:03;34.40;99.90
42663;DHT22;44330;51.360;6.686;2023-09-08T12:35:29;34.40;99.90
42663;DHT22;44330;51.360;6.686;2023-09-08T12:37:58;34.50;99.90
42663;DHT22;44330;51.360;6.686;2023-09-08T12:40:25;34.40;99.90
42663;DHT22;44330;51.360;6.686;2023-09-08T12:42:51;34.40;99.90
42663;DHT22;44330;51.360;6.686;2023-09-08T12:45:17;34.40;99.90
42663;DHT22;44330;51.360;6.686;2023-09-08T12:47:43;34.50;99.90
42663;DHT22;44330;51.360;6.686;2023-09-08T12:50:08;34.50;99.90
42663;DHT22;44330;51.360;6.686;2023-09-08T12:52:34;34.50;99.90
42663;DHT22;44330;51.360;6.686;2023-09-08T12:55:00;34.50;99.90
42663;DHT22;44330;51.360;6.686;2023-09-08T12:57:25;34.40;99.90
42663;DHT22;44330;51.360;6.686;2023-09-08T12:59:51;34.50;99.90
42663;DHT22;44330;51.360;6.686;2023-09-08T13:02:17;34.60;99.90
42663;DHT22;44330;51.360;6.686;2023-09-08T13:04:42;34.50;99.90
42663;DHT22;44330;51.360;6.686;2023-09-08T13:07:14;34.50;99.90
42663;DHT22;44330;51.360;6.686;2023-09-08T13:09:40;34.30;99.90
42663;DHT22;44330;51.360;6.686;2023-09-08T13:12:05;34.30;99.90
42663;DHT22;44330;51.360;6.686;2023-09-08T13:14:31;34.40;99.90
42663;DHT22;44330;51.360;6.686;2023-09-08T13:16:56;34.40;99.90
42663;DHT22;44330;51.360;6.686;2023-09-08T13:19:22;34.50;99.90
42663;DHT22;44330;51.360;6.686;2023-09-08T13:21:47;34.50;99.90
42663;DHT22;44330;51.360;6.686;2023-09-08T13:24:12;34.60;99.90
42663;DHT22;44330;51.360;6.686;2023-09-08T13:26:38;34.70;99.90
42663;DHT22;44330;51.360;6.686;2023-09-08T13:29:03;34.70;99.90
42663;DHT22;44330;51.360;6.686;2023-09-08T13:31:29;34.70;99.90
42663;DHT22;44330;51.360;6.686;2023-09-08T13:33:54;34.80;99.90
42663;DHT22;44330;51.360;6.686;2023-09-08T13:36:20;34.80;99.90
42663;DHT22;44330;51.360;6.686;2023-09-08T13:38:45;34.90;99.90
42663;DHT22;44330;51.360;6.686;2023-09-08T13:41:10;34.90;99.90
42663;DHT22;44330;51.360;6.686;2023-09-08T13:43:36;34.90;99.90
42663;DHT22;44330;51.360;6.686;2023-09-08T13:46:01;34.90;99.90
42663;DHT22;44330;51.360;6.686;2023-09-08T13:48:27;34.80;99.90
42663;DHT22;44330;51.360;6.686;2023-09-08T13:50:52;34.70;99.90
42663;DHT22;44330;51.360;6.686;2023-09-08T13:53:18;34.40;99.90
42663;DHT22;44330;51.360;6.686;2023-09-08T13:55:44;34.40;99.90
42663;DHT22;44330;51.360;6.686;2023-09-08T13:58:10;34.60;99.90
42663;DHT22;44330;51.360;6.686;2023-09-08T14:00:36;34.70;99.90
42663;DHT22;44330;51.360;6.686;2023-09-08T14:03:01;34.80;99.90
42663;DHT22;44330;51.360;6.686;2023-09-08T14:05:27;34.80;99.90
42663;DHT22;44330;51.360;6.686;2023-09-08T14:07:52;34.90;99.90
42663;DHT22;44330;51.360;6.686;2023-09-08T14:10:18;34.80;99.90
42663;DHT22;44330;51.360;6.686;2023-09-08T14:12:43;34.80;99.90
42663;DHT22;44330;51.360;6.686;2023-09-08T14:15:09;34.80;99.90
42663;DHT22;44330;51.360;6.686;2023-09-08T14:17:34;34.80;99.90
42663;DHT22;44330;51.360;6.686;2023-09-08T14:19:59;34.70;99.90
42663;DHT22;44330;51.360;6.686;2023-09-08T14:22:25;34.80;99.90
42663;DHT22;44330;51.360;6.686;2023-09-08T14:24:51;34.80;99.90
42663;DHT22;44330;51.360;6.686;2023-09-08T14:27:17;34.80;99.90
42663;DHT22;44330;51.360;6.686;2023-09-08T14:29:43;34.80;99.90
42663;DHT22;44330;51.360;6.686;2023-09-08T14:32:09;34.90;99.90
42663;DHT22;44330;51.360;6.686;2023-09-08T14:34:34;35.00;99.90
42663;DHT22;44330;51.360;6.686;2023-09-08T14:36:59;35.10;99.90
42663;DHT22;44330;51.360;6.686;2023-09-08T14:39:25;35.10;99.90
42663;DHT22;44330;51.360;6.686;2023-09-08T14:41:51;35.00;99.90
42663;DHT22;44330;51.360;6.686;2023-09-08T14:44:18;35.00;99.90
42663;DHT22;44330;51.360;6.686;2023-09-08T14:46:43;35.00;99.90
42663;DHT22;44330;51.360;6.686;2023-09-08T14:49:09;35.00;99.90
42663;DHT22;44330;51.360;6.686;2023-09-08T14:51:34;35.00;99.90
42663;DHT22;44330;51.360;6.686;2023-09-08T14:54:00;35.00;99.90
42663;DHT22;44330;51.360;6.686;2023-09-08T14:56:25;35.10;99.90
42663;DHT22;44330;51.360;6.686;2023-09-08T14:58:50;35.10;99.90
42663;DHT22;44330;51.360;6.686;2023-09-08T15:01:16;35.00;99.90
42663;DHT22;44330;51.360;6.686;2023-09-08T15:03:42;34.90;99.90
42663;DHT22;44330;51.360;6.686;2023-09-08T15:06:07;34.80;99.90
42663;DHT22;44330;51.360;6.686;2023-09-08T15:08:34;34.80;99.90
42663;DHT22;44330;51.360;6.686;2023-09-08T15:10:59;34.80;99.90
42663;DHT22;44330;51.360;6.686;2023-09-08T15:13:25;34.90;99.90
42663;DHT22;44330;51.360;6.686;2023-09-08T15:15:50;34.90;99.90
42663;DHT22;44330;51.360;6.686;2023-09-08T15:18:16;34.90;99.90
42663;DHT22;44330;51.360;6.686;2023-09-08T15:20:49;34.80;99.90
42663;DHT22;44330;51.360;6.686;2023-09-08T15:23:15;34.80;99.90
42663;DHT22;44330;51.360;6.686;2023-09-08T15:25:40;34.70;99.90
42663;DHT22;44330;51.360;6.686;2023-09-08T15:28:06;34.70;99.90
42663;DHT22;44330;51.360;6.686;2023-09-08T15:30:31;34.70;99.90
42663;DHT22;44330;51.360;6.686;2023-09-08T15:32:56;34.70;99.90
42663;DHT22;44330;51.360;6.686;2023-09-08T15:35:22;34.60;99.90
42663;DHT22;44330;51.360;6.686;2023-09-08T15:37:47;34.60;99.90
42663;DHT22;44330;51.360;6.686;2023-09-08T15:40:13;34.50;99.90
42663;DHT22;44330;51.360;6.686;2023-09-08T15:42:40;34.50;99.90